sensor_id;sensor_type;location;lat;lon;timestamp;pressure;altitude;pressure_sealevel;temperature;humidity
22257;BME280;11297;42.686;23.374;2023-03-14T00:00:10;95223.31;;;7.44;40.17
22257;BME280;11297;42.686;23.374;2023-03-14T00:02:36;95226.50;;;7.36;40.50
22257;BME280;11297;42.686;23.374;2023-03-14T00:05:01;95225.16;;;7.38;40.08
22257;BME280;11297;42.686;23.374;2023-03-14T00:07:35;95207.13;;;7.33;40.68
22257;BME280;11297;42.686;23.374;2023-03-14T00:10:06;95204.72;;;7.42;40.70
22257;BME280;11297;42.686;23.374;2023-03-14T00:12:32;95208.41;;;7.36;40.44
22257;BME280;11297;42.686;23.374;2023-03-14T00:14:58;95206.34;;;7.10;41.45
22257;BME280;11297;42.686;23.374;2023-03-14T00:17:25;95204.91;;;6.99;41.25
22257;BME280;11297;42.686;23.374;2023-03-14T00:19:52;95198.19;;;6.98;41.31
22257;BME280;11297;42.686;23.374;2023-03-14T00:22:19;95198.91;;;7.03;41.41
22257;BME280;11297;42.686;23.374;2023-03-14T00:24:45;95183.00;;;6.91;41.37
22257;BME280;11297;42.686;23.374;2023-03-14T00:27:10;95179.84;;;6.99;41.63
22257;BME280;11297;42.686;23.374;2023-03-14T00:29:36;95186.09;;;6.93;42.15
22257;BME280;11297;42.686;23.374;2023-03-14T00:32:01;95181.88;;;6.74;42.43
22257;BME280;11297;42.686;23.374;2023-03-14T00:34:30;95167.03;;;6.56;42.47
22257;BME280;11297;42.686;23.374;2023-03-14T00:36:56;95172.19;;;6.56;43.01
22257;BME280;11297;42.686;23.374;2023-03-14T00:39:21;95169.25;;;6.39;42.83
22257;BME280;11297;42.686;23.374;2023-03-14T00:41:47;95170.97;;;6.49;43.39
22257;BME280;11297;42.686;23.374;2023-03-14T00:44:12;95162.47;;;6.48;43.46
22257;BME280;11297;42.686;23.374;2023-03-14T00:46:38;95160.56;;;6.25;43.85
22257;BME280;11297;42.686;23.374;2023-03-14T00:49:03;95161.06;;;6.27;43.90
22257;BME280;11297;42.686;23.374;2023-03-14T00:51:29;95176.81;;;6.26;43.92
22257;BME280;11297;42.686;23.374;2023-03-14T00:53:54;95171.06;;;6.34;43.66
22257;BME280;11297;42.686;23.374;2023-03-14T00:56:19;95156.09;;;6.41;43.73
22257;BME280;11297;42.686;23.374;2023-03-14T00:58:45;95158.94;;;6.39;43.99
22257;BME280;11297;42.686;23.374;2023-03-14T01:01:18;95163.81;;;6.41;43.99
22257;BME280;11297;42.686;23.374;2023-03-14T01:03:44;95164.34;;;6.38;44.05
22257;BME280;11297;42.686;23.374;2023-03-14T01:06:12;95157.59;;;6.42;44.17
22257;BME280;11297;42.686;23.374;2023-03-14T01:08:38;95159.91;;;6.43;44.23
22257;BME280;11297;42.686;23.374;2023-03-14T01:11:12;95151.19;;;6.39;44.37
22257;BME280;11297;42.686;23.374;2023-03-14T01:13:38;95142.91;;;6.42;44.22
22257;BME280;11297;42.686;23.374;2023-03-14T01:16:06;95146.84;;;6.30;44.19
22257;BME280;11297;42.686;23.374;2023-03-14T01:18:33;95133.69;;;6.31;43.58
22257;BME280;11297;42.686;23.374;2023-03-14T01:21:01;95143.47;;;6.34;44.22
22257;BME280;11297;42.686;23.374;2023-03-14T01:23:26;95132.00;;;6.17;44.52
22257;BME280;11297;42.686;23.374;2023-03-14T01:25:52;95125.06;;;6.13;44.66
22257;BME280;11297;42.686;23.374;2023-03-14T01:28:17;95119.50;;;5.96;44.18
22257;BME280;11297;42.686;23.374;2023-03-14T01:30:42;95124.34;;;6.07;44.68
22257;BME280;11297;42.686;23.374;2023-03-14T01:33:08;95122.56;;;6.03;44.25
22257;BME280;11297;42.686;23.374;2023-03-14T01:35:33;95114.78;;;6.08;44.75
22257;BME280;11297;42.686;23.374;2023-03-14T01:37:59;95118.31;;;6.17;44.13
22257;BME280;11297;42.686;23.374;2023-03-14T01:40:24;95114.44;;;6.19;43.99
22257;BME280;11297;42.686;23.374;2023-03-14T01:42:57;95111.38;;;6.17;44.03
22257;BME280;11297;42.686;23.374;2023-03-14T01:48:30;95108.97;;;6.25;44.07
22257;BME280;11297;42.686;23.374;2023-03-14T01:50:57;95098.09;;;6.33;43.99
22257;BME280;11297;42.686;23.374;2023-03-14T01:53:24;95097.47;;;6.46;43.68
22257;BME280;11297;42.686;23.374;2023-03-14T01:55:50;95098.38;;;6.60;43.46
22257;BME280;11297;42.686;23.374;2023-03-14T01:58:18;95091.25;;;6.75;42.96
22257;BME280;11297;42.686;23.374;2023-03-14T02:00:45;95089.34;;;6.86;42.62
22257;BME280;11297;42.686;23.374;2023-03-14T02:03:14;95084.03;;;7.01;42.58
22257;BME280;11297;42.686;23.374;2023-03-14T02:05:42;95098.31;;;7.16;42.21
22257;BME280;11297;42.686;23.374;2023-03-14T02:08:15;95102.81;;;7.29;41.74
22257;BME280;11297;42.686;23.374;2023-03-14T02:10:48;95080.00;;;7.36;41.56
22257;BME280;11297;42.686;23.374;2023-03-14T02:13:15;95088.03;;;7.53;41.78
22257;BME280;11297;42.686;23.374;2023-03-14T02:15:41;95075.63;;;7.55;40.97
22257;BME280;11297;42.686;23.374;2023-03-14T02:18:08;95080.09;;;7.68;41.23
22257;BME280;11297;42.686;23.374;2023-03-14T02:20:53;95084.16;;;7.74;41.29
22257;BME280;11297;42.686;23.374;2023-03-14T02:26:23;95071.28;;;7.69;41.24
22257;BME280;11297;42.686;23.374;2023-03-14T02:28:51;95069.19;;;7.71;41.35
22257;BME280;11297;42.686;23.374;2023-03-14T02:31:18;95074.59;;;7.74;41.48
22257;BME280;11297;42.686;23.374;2023-03-14T02:33:46;95072.84;;;7.70;41.34
22257;BME280;11297;42.686;23.374;2023-03-14T02:36:13;95072.06;;;7.69;41.79
22257;BME280;11297;42.686;23.374;2023-03-14T02:39:00;95077.03;;;7.66;41.76
22257;BME280;11297;42.686;23.374;2023-03-14T02:41:30;95082.00;;;7.62;41.83
22257;BME280;11297;42.686;23.374;2023-03-14T02:43:56;95077.22;;;7.51;42.08
22257;BME280;11297;42.686;23.374;2023-03-14T02:46:21;95084.53;;;7.44;41.78
22257;BME280;11297;42.686;23.374;2023-03-14T02:48:54;95096.97;;;7.42;42.41
22257;BME280;11297;42.686;23.374;2023-03-14T02:51:21;95097.88;;;7.33;42.82
22257;BME280;11297;42.686;23.374;2023-03-14T02:53:48;95098.47;;;7.25;43.12
22257;BME280;11297;42.686;23.374;2023-03-14T02:56:13;95089.56;;;7.13;43.52
22257;BME280;11297;42.686;23.374;2023-03-14T02:58:39;95093.81;;;7.04;43.06
22257;BME280;11297;42.686;23.374;2023-03-14T03:01:05;95100.06;;;6.98;43.39
22257;BME280;11297;42.686;23.374;2023-03-14T03:03:30;95096.53;;;6.89;43.93
22257;BME280;11297;42.686;23.374;2023-03-14T03:05:56;95103.56;;;6.83;43.88
22257;BME280;11297;42.686;23.374;2023-03-14T03:08:23;95096.63;;;6.79;44.38
22257;BME280;11297;42.686;23.374;2023-03-14T03:10:50;95093.13;;;6.70;44.16
22257;BME280;11297;42.686;23.374;2023-03-14T03:13:16;95100.69;;;6.62;44.42
22257;BME280;11297;42.686;23.374;2023-03-14T03:15:42;95097.09;;;6.58;45.12
22257;BME280;11297;42.686;23.374;2023-03-14T03:18:08;95089.44;;;6.53;44.71
22257;BME280;11297;42.686;23.374;2023-03-14T03:20:33;95098.41;;;6.55;45.09
22257;BME280;11297;42.686;23.374;2023-03-14T03:22:59;95094.84;;;6.51;45.29
22257;BME280;11297;42.686;23.374;2023-03-14T03:25:25;95094.34;;;6.49;45.61
22257;BME280;11297;42.686;23.374;2023-03-14T03:27:51;95096.91;;;6.49;45.40
22257;BME280;11297;42.686;23.374;2023-03-14T03:30:16;95088.75;;;6.42;45.71
22257;BME280;11297;42.686;23.374;2023-03-14T03:32:42;95093.91;;;6.42;46.03
22257;BME280;11297;42.686;23.374;2023-03-14T03:35:08;95097.03;;;6.39;46.31
22257;BME280;11297;42.686;23.374;2023-03-14T03:37:34;95090.38;;;6.33;45.97
22257;BME280;11297;42.686;23.374;2023-03-14T03:39:59;95081.06;;;6.32;46.14
22257;BME280;11297;42.686;23.374;2023-03-14T03:42:26;95091.88;;;6.39;46.06
22257;BME280;11297;42.686;23.374;2023-03-14T03:44:52;95088.75;;;6.37;46.59
22257;BME280;11297;42.686;23.374;2023-03-14T03:47:17;95090.63;;;6.32;46.25
22257;BME280;11297;42.686;23.374;2023-03-14T03:49:43;95089.31;;;6.34;46.52
22257;BME280;11297;42.686;23.374;2023-03-14T03:52:08;95093.44;;;6.35;46.79
22257;BME280;11297;42.686;23.374;2023-03-14T03:54:34;95100.91;;;6.37;46.56
22257;BME280;11297;42.686;23.374;2023-03-14T03:57:00;95108.91;;;6.35;46.58
22257;BME280;11297;42.686;23.374;2023-03-14T03:59:25;95103.47;;;6.37;46.44
22257;BME280;11297;42.686;23.374;2023-03-14T04:01:50;95114.06;;;6.35;46.81
22257;BME280;11297;42.686;23.374;2023-03-14T04:04:16;95116.38;;;6.37;46.57
22257;BME280;11297;42.686;23.374;2023-03-14T04:06:41;95109.94;;;6.34;46.87
22257;BME280;11297;42.686;23.374;2023-03-14T04:09:08;95093.47;;;6.30;46.81
22257;BME280;11297;42.686;23.374;2023-03-14T04:11:34;95106.31;;;6.35;47.04
22257;BME280;11297;42.686;23.374;2023-03-14T04:13:59;95103.97;;;6.39;46.69
22257;BME280;11297;42.686;23.374;2023-03-14T04:16:26;95102.41;;;6.43;46.97
22257;BME280;11297;42.686;23.374;2023-03-14T04:18:52;95101.03;;;6.50;46.65
22257;BME280;11297;42.686;23.374;2023-03-14T04:21:18;95093.31;;;6.50;46.68
22257;BME280;11297;42.686;23.374;2023-03-14T04:23:43;95092.44;;;6.60;46.50
22257;BME280;11297;42.686;23.374;2023-03-14T04:26:09;95081.56;;;6.63;46.31
22257;BME280;11297;42.686;23.374;2023-03-14T04:28:34;95072.59;;;6.60;45.94
22257;BME280;11297;42.686;23.374;2023-03-14T04:31:13;95081.53;;;6.67;45.87
22257;BME280;11297;42.686;23.374;2023-03-14T04:33:39;95068.13;;;6.65;45.79
22257;BME280;11297;42.686;23.374;2023-03-14T04:36:06;95071.22;;;6.67;46.49
22257;BME280;11297;42.686;23.374;2023-03-14T04:38:32;95072.47;;;6.70;46.02
22257;BME280;11297;42.686;23.374;2023-03-14T04:40:57;95056.31;;;6.60;45.89
22257;BME280;11297;42.686;23.374;2023-03-14T04:43:24;95065.78;;;6.69;45.83
22257;BME280;11297;42.686;23.374;2023-03-14T04:45:51;95048.28;;;6.61;46.24
22257;BME280;11297;42.686;23.374;2023-03-14T04:48:16;95059.75;;;7.02;51.06
22257;BME280;11297;42.686;23.374;2023-03-14T04:50:42;95055.69;;;6.96;47.13
22257;BME280;11297;42.686;23.374;2023-03-14T04:53:07;95059.25;;;7.00;46.96
22257;BME280;11297;42.686;23.374;2023-03-14T04:55:33;95047.88;;;7.01;46.87
22257;BME280;11297;42.686;23.374;2023-03-14T04:57:59;95047.88;;;7.01;46.89
22257;BME280;11297;42.686;23.374;2023-03-14T05:00:25;95047.13;;;7.00;46.91
22257;BME280;11297;42.686;23.374;2023-03-14T05:02:50;95050.94;;;7.03;47.13
22257;BME280;11297;42.686;23.374;2023-03-14T05:05:16;95044.25;;;7.02;47.22
22257;BME280;11297;42.686;23.374;2023-03-14T05:07:41;95040.25;;;6.91;47.03
22257;BME280;11297;42.686;23.374;2023-03-14T05:10:07;95048.09;;;6.81;47.12
22257;BME280;11297;42.686;23.374;2023-03-14T05:12:33;95047.19;;;6.72;47.09
22257;BME280;11297;42.686;23.374;2023-03-14T05:14:58;95050.31;;;6.69;47.34
22257;BME280;11297;42.686;23.374;2023-03-14T05:17:24;95044.25;;;7.02;54.84
22257;BME280;11297;42.686;23.374;2023-03-14T05:19:49;95035.13;;;6.86;49.07
22257;BME280;11297;42.686;23.374;2023-03-14T05:22:14;95052.66;;;7.12;52.34
22257;BME280;11297;42.686;23.374;2023-03-14T05:24:40;95052.75;;;6.79;49.24
22257;BME280;11297;42.686;23.374;2023-03-14T05:27:05;95051.22;;;6.55;49.54
22257;BME280;11297;42.686;23.374;2023-03-14T05:29:31;95039.88;;;6.27;49.47
22257;BME280;11297;42.686;23.374;2023-03-14T05:31:56;95039.16;;;6.73;48.35
22257;BME280;11297;42.686;23.374;2023-03-14T05:34:22;95049.53;;;7.33;60.52
22257;BME280;11297;42.686;23.374;2023-03-14T05:36:47;95044.75;;;7.45;49.00
22257;BME280;11297;42.686;23.374;2023-03-14T05:39:13;95058.44;;;8.64;70.58
22257;BME280;11297;42.686;23.374;2023-03-14T05:41:38;95040.31;;;8.01;50.56
22257;BME280;11297;42.686;23.374;2023-03-14T05:44:04;95041.81;;;7.88;46.48
22257;BME280;11297;42.686;23.374;2023-03-14T05:46:29;95051.34;;;8.06;45.63
22257;BME280;11297;42.686;23.374;2023-03-14T05:48:59;95044.69;;;8.37;45.47
22257;BME280;11297;42.686;23.374;2023-03-14T05:51:25;95051.03;;;8.44;44.76
22257;BME280;11297;42.686;23.374;2023-03-14T05:53:51;95047.31;;;8.50;43.78
22257;BME280;11297;42.686;23.374;2023-03-14T05:56:16;95038.03;;;8.17;44.96
22257;BME280;11297;42.686;23.374;2023-03-14T05:58:42;95045.56;;;8.14;44.26
22257;BME280;11297;42.686;23.374;2023-03-14T06:01:07;95035.50;;;8.12;44.38
22257;BME280;11297;42.686;23.374;2023-03-14T06:03:33;95040.84;;;8.34;43.68
22257;BME280;11297;42.686;23.374;2023-03-14T06:05:59;95047.09;;;8.47;43.53
22257;BME280;11297;42.686;23.374;2023-03-14T06:08:25;95044.53;;;8.15;44.55
22257;BME280;11297;42.686;23.374;2023-03-14T06:10:51;95040.88;;;8.48;44.03
22257;BME280;11297;42.686;23.374;2023-03-14T06:13:17;95045.19;;;8.52;43.66
22257;BME280;11297;42.686;23.374;2023-03-14T06:15:43;95037.28;;;8.75;42.98
22257;BME280;11297;42.686;23.374;2023-03-14T06:18:08;95042.38;;;8.94;42.58
22257;BME280;11297;42.686;23.374;2023-03-14T06:20:36;95036.13;;;9.08;42.25
22257;BME280;11297;42.686;23.374;2023-03-14T06:23:04;95038.91;;;9.25;42.04
22257;BME280;11297;42.686;23.374;2023-03-14T06:25:29;95038.63;;;8.86;42.80
22257;BME280;11297;42.686;23.374;2023-03-14T06:27:55;95036.13;;;8.95;43.22
22257;BME280;11297;42.686;23.374;2023-03-14T06:30:20;95042.94;;;9.17;42.27
22257;BME280;11297;42.686;23.374;2023-03-14T06:32:46;95042.72;;;9.41;42.68
22257;BME280;11297;42.686;23.374;2023-03-14T06:35:11;95041.91;;;9.67;41.54
22257;BME280;11297;42.686;23.374;2023-03-14T06:37:37;95047.00;;;9.72;41.26
22257;BME280;11297;42.686;23.374;2023-03-14T06:40:02;95041.31;;;9.70;41.63
22257;BME280;11297;42.686;23.374;2023-03-14T06:42:28;95038.91;;;9.73;41.39
22257;BME280;11297;42.686;23.374;2023-03-14T06:44:53;95041.53;;;9.95;41.23
22257;BME280;11297;42.686;23.374;2023-03-14T06:47:18;95036.13;;;10.27;42.26
22257;BME280;11297;42.686;23.374;2023-03-14T06:49:44;95018.00;;;10.65;41.11
22257;BME280;11297;42.686;23.374;2023-03-14T06:52:09;95020.13;;;10.94;39.63
22257;BME280;11297;42.686;23.374;2023-03-14T06:54:35;95020.66;;;11.12;39.56
22257;BME280;11297;42.686;23.374;2023-03-14T06:57:00;95004.81;;;11.39;39.56
22257;BME280;11297;42.686;23.374;2023-03-14T06:59:25;95006.69;;;11.55;38.68
22257;BME280;11297;42.686;23.374;2023-03-14T07:01:51;95011.16;;;11.97;37.59
22257;BME280;11297;42.686;23.374;2023-03-14T07:04:17;95014.63;;;12.35;37.71
22257;BME280;11297;42.686;23.374;2023-03-14T07:06:43;95003.22;;;12.64;36.77
22257;BME280;11297;42.686;23.374;2023-03-14T07:09:12;94994.16;;;13.07;35.62
22257;BME280;11297;42.686;23.374;2023-03-14T07:11:38;95002.81;;;13.28;35.15
22257;BME280;11297;42.686;23.374;2023-03-14T07:14:04;94998.91;;;13.42;35.27
22257;BME280;11297;42.686;23.374;2023-03-14T07:16:29;94988.72;;;13.90;34.09
22257;BME280;11297;42.686;23.374;2023-03-14T07:18:58;94991.81;;;14.04;33.22
22257;BME280;11297;42.686;23.374;2023-03-14T07:21:23;94997.78;;;13.72;33.58
22257;BME280;11297;42.686;23.374;2023-03-14T07:23:49;94992.88;;;14.11;33.40
22257;BME280;11297;42.686;23.374;2023-03-14T07:26:14;94989.59;;;14.34;32.45
22257;BME280;11297;42.686;23.374;2023-03-14T07:28:40;94996.84;;;14.29;32.84
22257;BME280;11297;42.686;23.374;2023-03-14T07:31:06;94989.31;;;14.60;32.41
22257;BME280;11297;42.686;23.374;2023-03-14T07:33:31;94992.44;;;14.41;32.83
22257;BME280;11297;42.686;23.374;2023-03-14T07:35:57;94985.34;;;14.42;32.39
22257;BME280;11297;42.686;23.374;2023-03-14T07:38:23;94978.56;;;14.73;32.55
22257;BME280;11297;42.686;23.374;2023-03-14T07:40:48;94979.34;;;14.97;30.99
22257;BME280;11297;42.686;23.374;2023-03-14T07:43:14;94976.50;;;14.90;31.61
22257;BME280;11297;42.686;23.374;2023-03-14T07:45:39;94959.28;;;15.13;30.73
22257;BME280;11297;42.686;23.374;2023-03-14T07:48:05;94964.94;;;15.15;31.60
22257;BME280;11297;42.686;23.374;2023-03-14T07:50:30;94954.91;;;15.41;30.25
22257;BME280;11297;42.686;23.374;2023-03-14T07:52:56;94960.16;;;15.05;30.73
22257;BME280;11297;42.686;23.374;2023-03-14T07:55:21;94957.44;;;15.26;30.75
22257;BME280;11297;42.686;23.374;2023-03-14T07:57:47;94945.66;;;15.08;30.84
22257;BME280;11297;42.686;23.374;2023-03-14T08:00:13;94959.31;;;15.25;30.79
22257;BME280;11297;42.686;23.374;2023-03-14T08:02:40;94950.97;;;15.47;30.68
22257;BME280;11297;42.686;23.374;2023-03-14T08:05:06;94953.84;;;15.30;30.68
22257;BME280;11297;42.686;23.374;2023-03-14T08:07:31;94937.91;;;15.35;30.39
22257;BME280;11297;42.686;23.374;2023-03-14T08:09:57;94959.31;;;15.25;30.56
22257;BME280;11297;42.686;23.374;2023-03-14T08:12:22;94951.31;;;15.22;31.00
22257;BME280;11297;42.686;23.374;2023-03-14T08:14:48;94947.41;;;15.28;30.57
22257;BME280;11297;42.686;23.374;2023-03-14T08:17:13;94954.88;;;15.53;29.95
22257;BME280;11297;42.686;23.374;2023-03-14T08:19:39;94955.22;;;15.51;29.49
22257;BME280;11297;42.686;23.374;2023-03-14T08:22:05;94954.25;;;15.95;29.17
22257;BME280;11297;42.686;23.374;2023-03-14T08:24:31;94948.78;;;16.15;28.39
22257;BME280;11297;42.686;23.374;2023-03-14T08:26:56;94950.28;;;16.01;28.62
22257;BME280;11297;42.686;23.374;2023-03-14T08:29:22;94940.09;;;16.11;28.96
22257;BME280;11297;42.686;23.374;2023-03-14T08:31:47;94941.53;;;16.51;28.46
22257;BME280;11297;42.686;23.374;2023-03-14T08:34:14;94941.19;;;16.53;28.53
22257;BME280;11297;42.686;23.374;2023-03-14T08:36:40;94932.88;;;17.27;27.35
22257;BME280;11297;42.686;23.374;2023-03-14T08:39:05;94922.25;;;17.92;26.72
22257;BME280;11297;42.686;23.374;2023-03-14T08:41:32;94922.38;;;17.80;31.64
22257;BME280;11297;42.686;23.374;2023-03-14T08:43:58;94924.16;;;17.58;28.54
22257;BME280;11297;42.686;23.374;2023-03-14T08:46:23;94920.69;;;18.29;28.18
22257;BME280;11297;42.686;23.374;2023-03-14T08:48:48;94917.66;;;18.27;28.49
22257;BME280;11297;42.686;23.374;2023-03-14T08:51:14;94914.91;;;18.01;30.08
22257;BME280;11297;42.686;23.374;2023-03-14T08:53:40;94906.88;;;17.94;28.60
22257;BME280;11297;42.686;23.374;2023-03-14T08:56:06;94907.09;;;17.67;28.50
22257;BME280;11297;42.686;23.374;2023-03-14T08:58:33;94901.34;;;17.99;28.20
22257;BME280;11297;42.686;23.374;2023-03-14T09:00:58;94889.03;;;17.84;28.79
22257;BME280;11297;42.686;23.374;2023-03-14T09:03:25;94892.88;;;18.09;32.72
22257;BME280;11297;42.686;23.374;2023-03-14T09:05:51;94876.53;;;17.97;27.21
22257;BME280;11297;42.686;23.374;2023-03-14T09:08:17;94886.13;;;18.49;27.89
22257;BME280;11297;42.686;23.374;2023-03-14T09:10:42;94863.91;;;18.95;26.06
22257;BME280;11297;42.686;23.374;2023-03-14T09:13:08;94867.94;;;19.11;28.95
22257;BME280;11297;42.686;23.374;2023-03-14T09:15:33;94869.03;;;19.36;25.32
22257;BME280;11297;42.686;23.374;2023-03-14T09:17:59;94858.44;;;19.62;24.83
22257;BME280;11297;42.686;23.374;2023-03-14T09:20:24;94852.97;;;18.93;26.40
22257;BME280;11297;42.686;23.374;2023-03-14T09:22:49;94842.00;;;19.13;27.17
22257;BME280;11297;42.686;23.374;2023-03-14T09:25:15;94842.16;;;19.53;24.61
22257;BME280;11297;42.686;23.374;2023-03-14T09:27:40;94852.09;;;19.66;27.94
22257;BME280;11297;42.686;23.374;2023-03-14T09:30:06;94836.94;;;19.89;23.89
22257;BME280;11297;42.686;23.374;2023-03-14T09:32:32;94831.75;;;19.96;23.67
22257;BME280;11297;42.686;23.374;2023-03-14T09:34:57;94824.19;;;19.94;23.18
22257;BME280;11297;42.686;23.374;2023-03-14T09:37:23;94822.34;;;19.98;23.48
22257;BME280;11297;42.686;23.374;2023-03-14T09:39:48;94814.16;;;20.10;23.74
22257;BME280;11297;42.686;23.374;2023-03-14T09:42:18;94812.72;;;20.16;23.66
22257;BME280;11297;42.686;23.374;2023-03-14T09:44:59;94808.16;;;20.13;23.58
22257;BME280;11297;42.686;23.374;2023-03-14T09:47:27;94793.75;;;20.00;23.66
22257;BME280;11297;42.686;23.374;2023-03-14T09:49:53;94801.44;;;20.19;23.74
22257;BME280;11297;42.686;23.374;2023-03-14T09:52:23;94789.16;;;20.37;23.84
22257;BME280;11297;42.686;23.374;2023-03-14T09:54:55;94769.81;;;20.22;24.01
22257;BME280;11297;42.686;23.374;2023-03-14T09:57:24;94774.75;;;20.27;23.90
22257;BME280;11297;42.686;23.374;2023-03-14T09:59:52;94777.88;;;20.43;24.24
22257;BME280;11297;42.686;23.374;2023-03-14T10:02:24;94770.72;;;20.44;23.91
22257;BME280;11297;42.686;23.374;2023-03-14T10:04:52;94768.31;;;20.25;24.04
22257;BME280;11297;42.686;23.374;2023-03-14T10:07:28;94755.00;;;20.08;24.52
22257;BME280;11297;42.686;23.374;2023-03-14T10:09:54;94750.38;;;19.98;25.00
22257;BME280;11297;42.686;23.374;2023-03-14T10:12:31;94747.56;;;20.23;24.82
22257;BME280;11297;42.686;23.374;2023-03-14T10:15:03;94754.38;;;20.24;24.54
22257;BME280;11297;42.686;23.374;2023-03-14T10:17:39;94744.81;;;19.70;25.23
22257;BME280;11297;42.686;23.374;2023-03-14T10:20:05;94734.22;;;19.63;25.51
22257;BME280;11297;42.686;23.374;2023-03-14T10:22:32;94733.72;;;19.90;25.46
22257;BME280;11297;42.686;23.374;2023-03-14T10:25:03;94720.94;;;19.92;25.47
22257;BME280;11297;42.686;23.374;2023-03-14T10:27:34;94720.56;;;19.94;25.39
22257;BME280;11297;42.686;23.374;2023-03-14T10:30:03;94709.53;;;19.85;25.66
22257;BME280;11297;42.686;23.374;2023-03-14T10:32:34;94711.25;;;20.03;25.55
22257;BME280;11297;42.686;23.374;2023-03-14T10:37:53;94693.31;;;20.26;25.56
22257;BME280;11297;42.686;23.374;2023-03-14T10:40:26;94685.34;;;20.19;25.11
22257;BME280;11297;42.686;23.374;2023-03-14T10:42:52;94672.78;;;19.99;25.17
22257;BME280;11297;42.686;23.374;2023-03-14T10:45:28;94666.81;;;20.09;25.36
22257;BME280;11297;42.686;23.374;2023-03-14T10:47:54;94661.56;;;20.12;25.45
22257;BME280;11297;42.686;23.374;2023-03-14T10:50:30;94660.78;;;20.12;25.21
22257;BME280;11297;42.686;23.374;2023-03-14T10:52:57;94655.28;;;20.30;25.17
22257;BME280;11297;42.686;23.374;2023-03-14T10:55:26;94641.78;;;20.42;25.22
22257;BME280;11297;42.686;23.374;2023-03-14T10:57:52;94622.19;;;19.86;26.08
22257;BME280;11297;42.686;23.374;2023-03-14T11:00:20;94622.69;;;20.02;25.77
22257;BME280;11297;42.686;23.374;2023-03-14T11:07:58;94601.78;;;19.83;26.41
22257;BME280;11297;42.686;23.374;2023-03-14T11:10:37;94610.22;;;19.99;26.00
22257;BME280;11297;42.686;23.374;2023-03-14T11:29:41;94535.88;;;19.83;25.56
22257;BME280;11297;42.686;23.374;2023-03-14T11:32:19;94534.81;;;19.88;25.70
22257;BME280;11297;42.686;23.374;2023-03-14T11:34:51;94542.75;;;19.95;25.49
22257;BME280;11297;42.686;23.374;2023-03-14T11:37:25;94540.59;;;20.11;25.07
22257;BME280;11297;42.686;23.374;2023-03-14T11:40:00;94532.75;;;20.28;25.00
22257;BME280;11297;42.686;23.374;2023-03-14T11:42:32;94511.25;;;20.26;24.92
22257;BME280;11297;42.686;23.374;2023-03-14T11:44:59;94526.53;;;20.70;58.78
22257;BME280;11297;42.686;23.374;2023-03-14T11:47:30;94519.38;;;20.95;46.45
22257;BME280;11297;42.686;23.374;2023-03-14T11:50:05;94516.44;;;21.52;48.75
22257;BME280;11297;42.686;23.374;2023-03-14T11:52:36;94517.81;;;22.12;56.66
22257;BME280;11297;42.686;23.374;2023-03-14T11:57:40;94494.84;;;22.80;36.48
22257;BME280;11297;42.686;23.374;2023-03-14T12:05:34;94477.97;;;23.61;41.03
22257;BME280;11297;42.686;23.374;2023-03-14T12:10:52;94474.06;;;23.73;35.99
22257;BME280;11297;42.686;23.374;2023-03-14T12:13:19;94458.63;;;23.61;27.27
22257;BME280;11297;42.686;23.374;2023-03-14T12:16:32;94440.72;;;23.32;32.46
22257;BME280;11297;42.686;23.374;2023-03-14T12:18:54;94445.88;;;23.06;33.52
22257;BME280;11297;42.686;23.374;2023-03-14T12:21:20;94419.88;;;22.83;23.31
22257;BME280;11297;42.686;23.374;2023-03-14T12:23:51;94425.00;;;22.54;23.11
22257;BME280;11297;42.686;23.374;2023-03-14T12:26:21;94417.97;;;22.30;22.92
22257;BME280;11297;42.686;23.374;2023-03-14T12:36:51;94411.69;;;19.99;24.48
22257;BME280;11297;42.686;23.374;2023-03-14T12:39:37;94414.91;;;19.71;24.55
22257;BME280;11297;42.686;23.374;2023-03-14T12:42:12;94403.47;;;19.40;25.20
22257;BME280;11297;42.686;23.374;2023-03-14T12:44:40;94403.78;;;19.24;25.59
22257;BME280;11297;42.686;23.374;2023-03-14T12:49:48;94403.72;;;19.21;25.40
22257;BME280;11297;42.686;23.374;2023-03-14T12:52:17;94403.69;;;19.14;25.39
22257;BME280;11297;42.686;23.374;2023-03-14T12:55:06;94397.59;;;19.03;25.29
22257;BME280;11297;42.686;23.374;2023-03-14T13:00:22;94386.22;;;18.92;25.45
22257;BME280;11297;42.686;23.374;2023-03-14T13:02:49;94366.97;;;18.85;25.42
22257;BME280;11297;42.686;23.374;2023-03-14T13:12:40;94368.09;;;18.84;25.29
22257;BME280;11297;42.686;23.374;2023-03-14T13:18:13;94345.63;;;18.97;25.24
22257;BME280;11297;42.686;23.374;2023-03-14T13:20:45;94343.34;;;18.95;25.26
22257;BME280;11297;42.686;23.374;2023-03-14T13:23:31;94333.22;;;18.97;25.02
22257;BME280;11297;42.686;23.374;2023-03-14T13:25:58;94331.59;;;18.79;25.06
22257;BME280;11297;42.686;23.374;2023-03-14T13:28:24;94316.81;;;18.61;25.23
22257;BME280;11297;42.686;23.374;2023-03-14T13:30:55;94321.38;;;18.70;25.56
22257;BME280;11297;42.686;23.374;2023-03-14T13:33:22;94307.91;;;18.79;25.50
22257;BME280;11297;42.686;23.374;2023-03-14T13:36:03;94328.16;;;18.68;25.28
22257;BME280;11297;42.686;23.374;2023-03-14T13:38:32;94307.75;;;18.55;24.92
22257;BME280;11297;42.686;23.374;2023-03-14T13:40:59;94300.59;;;18.52;25.39
22257;BME280;11297;42.686;23.374;2023-03-14T13:43:43;94307.47;;;18.67;25.43
22257;BME280;11297;42.686;23.374;2023-03-14T13:46:14;94280.72;;;18.58;25.34
22257;BME280;11297;42.686;23.374;2023-03-14T13:48:56;94280.00;;;18.64;25.30
22257;BME280;11297;42.686;23.374;2023-03-14T13:51:23;94277.00;;;18.69;25.64
22257;BME280;11297;42.686;23.374;2023-03-14T13:53:52;94277.78;;;18.73;25.39
22257;BME280;11297;42.686;23.374;2023-03-14T13:56:19;94283.84;;;18.77;25.24
22257;BME280;11297;42.686;23.374;2023-03-14T13:58:46;94274.75;;;18.67;25.31
22257;BME280;11297;42.686;23.374;2023-03-14T14:03:54;94221.63;;;18.45;25.30